Track Здебловский Алексей

Time Latitude Longitude Accuracy (66% radius in meters) Altitude (meters) Speed (km/hour) Bearing (degrees) Battery (%) GPS flag
09:56:25 60.253302 29.796028 0 77.4 0.56670916080475 157.72999572754 1 delete
09:55:45 60.253357 29.795878 0 77.5 0.43596971035004 37.810001373291 1 delete
09:55:08 60.253263 29.795903 0 77.6 0.36133500933647 22.559999465942 1 delete
09:53:13 60.253175 29.795945 0 81.2 0.4668530523777 177.9700012207 1 delete
09:52:54 60.253243 29.796097 0 79.6 1.0737105607986 243.88000488281 1 delete
09:52:43 60.253262 29.796302 0 80.6 1.7716739177704 268.67001342773 1 delete
09:52:40 60.253255 29.796527 0 80.9 4.4626417160034 271.89001464844 1 delete
09:52:38 60.253257 29.796717 0 81.6 4.827579498291 280.98001098633 1 delete
09:52:36 60.253237 29.796900 0 82 4.2232956886292 278.70001220703 1 delete
09:52:31 60.253215 29.797130 0 80.8 2.2745575904846 297.45001220703 1 delete
09:52:28 60.253177 29.797365 0 82.3 4.9706726074219 276.38000488281 1 delete
09:52:25 60.253162 29.797630 0 82.1 4.2531495094299 278.10000610352 1 delete
09:52:22 60.253147 29.797857 0 82.2 4.321093082428 320.60998535156 1 delete
09:52:19 60.253072 29.798018 0 85.4 5.2187685966492 311.08999633789 1 delete
09:52:17 60.253007 29.798148 0 87 4.0102009773254 298.58999633789 1 delete
09:52:14 60.252948 29.798377 0 91.6 4.6237497329712 301.0299987793 1 delete
09:52:11 60.252950 29.798608 0 90.9 4.592351436615 227.57000732422 1 delete
09:52:09 60.253003 29.798775 0 91.4 4.7359590530396 228.63999938965 1 delete
09:52:07 60.253055 29.798935 0 91.5 4.6680159568787 244 1 delete
09:52:05 60.253078 29.799122 0 91.1 4.2716798782349 268.5 1 delete
09:52:02 60.253052 29.799398 0 91.6 5.3361253738403 281.58999633789 1 delete
09:52:00 60.253025 29.799595 0 91.4 5.9996023178101 285.10998535156 1 delete
09:51:58 60.253018 29.799828 0 91.9 5.3314929008484 276.23001098633 1 delete
09:51:56 60.253007 29.800037 0 93 4.8785371780396 279.14001464844 1 delete
09:51:54 60.252995 29.800228 0 92.8 5.0463366508484 275.63000488281 1 delete
09:51:51 60.252970 29.800475 0 93.4 3.1150989532471 288.51998901367 1 delete
09:51:48 60.252880 29.800605 0 96.1 4.6258087158203 344.67999267578 1 delete
09:51:45 60.252770 29.800735 0 99.9 4.262414932251 318.05999755859 1 delete
09:51:42 60.252690 29.800885 0 102.6 4.0838060379028 313.25 1 delete
09:51:40 60.252637 29.801032 0 107.1 4.3874921798706 309.9700012207 1 delete
09:51:37 60.252565 29.801260 0 112.3 4.2541790008545 308.01998901367 1 delete
09:51:34 60.252488 29.801488 0 111.2 4.2443995475769 312.16000366211 1 delete
09:51:31 60.252392 29.801652 0 107.3 4.1327047348022 314.16000366211 1 delete
09:51:28 60.252362 29.801832 0 107.6 2.9174456596375 266.83999633789 1 delete
09:51:25 60.252393 29.802043 0 108 2.4912555217743 268.2799987793 1 delete
09:51:21 60.252417 29.802267 0 108.5 2.9159014225006 245.83000183105 1 delete
09:51:18 60.252472 29.802475 0 106.2 4.4405088424683 219.32000732422 1 delete
09:51:16 60.252528 29.802630 0 105.3 4.8641247749329 219.57000732422 1 delete
09:51:13 60.252600 29.802812 0 102.9 3.6380567550659 238.14999389648 1 delete
09:51:10 60.252628 29.803037 0 101.1 2.7084684371948 278.69000244141 1 delete
09:51:07 60.252640 29.803253 0 99.4 2.9509024620056 282.57998657227 1 delete
09:51:04 60.252615 29.803470 0 98.3 3.0075218677521 280.48999023438 1 delete
09:51:00 60.252578 29.803693 0 95.2 2.4979469776154 292.92999267578 1 delete
09:50:56 60.252582 29.803880 0 95.1 1.8952071666718 254.27000427246 1 delete
09:50:51 60.252565 29.804063 0 92.4 2.1340384483337 279.98999023438 1 delete
09:50:46 60.252567 29.804257 0 90.6 2.3260297775269 287.26000976562 1 delete
09:50:41 60.252595 29.804458 0 91.3 1.6661558151245 257.88000488281 1 delete
09:50:37 60.252583 29.804640 0 90.5 3.1269373893738 320.45001220703 1 delete
09:50:28 60.252540 29.804827 0 90.4 1.0140027999878 219.25999450684 1 delete
09:50:22 60.252623 29.804915 0 91.3 1.4551197290421 239.69999694824 1 delete